Time;durP1;ratioP1;P1;durP2;ratioP2;P2;SDS_P1;SDS_P2;PMS_P1;PMS_P2;Temp;Humidity;BMP_temperature;BMP_pressure;BME280_temperature;BME280_humidity;BME280_pressure;Samples;Min_cycle;Max_cycle;Signal;HPM_P1;HPM_P2
2022/10/13 00:00:51;;;;;;;23.48;15.30;;;;;;;12.86;76.42;101169.44;4115910;28;20512;-61
2022/10/13 00:02:55;;;;;;;22.05;15.68;;;;;;;12.93;76.40;101166.09;4131865;28;20141;-62
2022/10/13 00:04:57;;;;;;;24.90;18.05;;;;;;;12.99;75.66;101166.19;4157029;28;20041;-61
2022/10/13 00:07:03;;;;;;;21.35;15.23;;;;;;;12.97;76.12;101175.72;4160820;28;20044;-60
2022/10/13 00:09:06;;;;;;;24.30;15.55;;;;;;;12.96;76.31;101170.47;4155316;28;20046;-60
2022/10/13 00:11:11;;;;;;;28.85;17.33;;;;;;;13.04;76.13;101168.84;4154639;28;20467;-61
2022/10/13 00:13:15;;;;;;;22.10;16.52;;;;;;;13.07;75.35;101166.31;4151375;28;20124;-61
2022/10/13 00:15:19;;;;;;;25.35;15.98;;;;;;;12.99;76.20;101165.31;4157393;28;20033;-61
2022/10/13 00:17:23;;;;;;;25.97;17.07;;;;;;;13.01;76.20;101168.81;4152901;28;20041;-60
2022/10/13 00:19:26;;;;;;;24.70;16.38;;;;;;;12.99;76.33;101166.19;4145776;28;20316;-61
2022/10/13 00:21:29;;;;;;;23.45;16.17;;;;;;;12.95;76.49;101160.88;4151707;28;20061;-61
2022/10/13 00:23:35;;;;;;;27.85;18.02;;;;;;;12.93;76.66;101168.69;4148142;28;20133;-61
2022/10/13 00:25:43;;;;;;;24.55;15.55;;;;;;;12.92;76.59;101166.94;4149158;28;20052;-61
2022/10/13 00:27:46;;;;;;;25.35;15.98;;;;;;;12.89;76.74;101173.00;4148891;28;20038;-61
2022/10/13 00:29:49;;;;;;;24.83;16.92;;;;;;;12.88;76.79;101176.47;4164216;28;20041;-61
2022/10/13 00:31:52;;;;;;;24.50;17.00;;;;;;;12.89;76.64;101162.56;4157029;28;20041;-61
2022/10/13 00:33:57;;;;;;;21.58;16.70;;;;;;;12.90;76.62;101158.22;4130483;28;20076;-60
2022/10/13 00:35:59;;;;;;;29.70;17.23;;;;;;;12.86;76.62;101164.22;4148892;28;20381;-61
2022/10/13 00:38:02;;;;;;;27.58;17.23;;;;;;;12.88;76.41;101162.53;4131575;28;20085;-61
2022/10/13 00:40:08;;;;;;;24.33;15.90;;;;;;;12.87;76.44;101161.63;4134304;28;20520;-61
2022/10/13 00:42:12;;;;;;;24.25;15.30;;;;;;;12.84;76.48;101161.59;4160197;28;20403;-61
2022/10/13 00:44:58;;;;;;;24.00;15.50;;;;;;;12.82;76.53;101158.09;4163968;28;20079;-61
2022/10/13 00:47:01;;;;;;;21.20;12.95;;;;;;;12.73;76.60;101166.66;4159606;28;20049;-61
2022/10/13 00:49:08;;;;;;;19.98;12.77;;;;;;;12.76;76.92;101163.19;4154980;28;20100;-61
2022/10/13 00:51:15;;;;;;;25.58;15.32;;;;;;;12.77;76.43;101164.97;4159797;28;20041;-61
2022/10/13 00:53:21;;;;;;;25.70;16.77;;;;;;;12.80;76.30;101167.63;4164296;28;20068;-61
2022/10/13 00:55:30;;;;;;;24.00;15.77;;;;;;;12.75;76.42;101166.69;4164953;28;20041;-61
2022/10/13 00:57:33;;;;;;;19.25;13.20;;;;;;;12.68;76.65;101170.91;4147372;28;20042;-61
2022/10/13 00:59:39;;;;;;;21.00;14.25;;;;;;;12.70;76.57;101166.59;4157590;28;20534;-60
2022/10/13 01:01:41;;;;;;;23.92;15.43;;;;;;;12.69;76.52;101166.59;4139881;28;20129;-61
2022/10/13 01:03:44;;;;;;;23.42;15.73;;;;;;;12.70;76.55;101164.00;4148045;28;20107;-61
2022/10/13 01:05:48;;;;;;;23.77;15.40;;;;;;;12.73;76.31;101163.16;4148495;28;20103;-61
2022/10/13 01:07:52;;;;;;;26.13;17.05;;;;;;;12.72;76.34;101161.41;4148306;28;20458;-61
2022/10/13 01:09:55;;;;;;;23.08;16.30;;;;;;;12.71;76.24;101155.28;4148468;28;20053;-61
2022/10/13 01:12:09;;;;;;;23.70;15.00;;;;;;;12.70;75.72;101160.50;4154898;28;20454;-61
2022/10/13 01:14:20;;;;;;;22.02;14.07;;;;;;;12.65;76.20;101164.75;4152535;28;20038;-61
2022/10/13 01:16:28;;;;;;;27.42;16.30;;;;;;;12.61;76.14;101157.72;4148316;28;20088;-61
2022/10/13 01:18:40;;;;;;;20.75;14.93;;;;;;;12.58;76.09;101159.41;4148467;28;20034;-61
2022/10/13 01:21:19;;;;;;;24.05;14.82;;;;;;;12.52;76.48;101154.09;4146367;28;20518;-61
2022/10/13 01:23:49;;;;;;;25.73;17.08;;;;;;;12.50;76.50;101160.13;4147574;28;20558;-61
2022/10/13 01:26:17;;;;;;;29.00;15.98;;;;;;;12.47;76.58;101161.00;4148228;28;20096;-61
2022/10/13 01:28:41;;;;;;;25.67;16.70;;;;;;;12.45;77.01;101154.84;4130761;28;20090;-61
2022/10/13 01:30:50;;;;;;;20.13;14.75;;;;;;;12.43;77.02;101160.91;4156189;28;20056;-61
2022/10/13 01:33:17;;;;;;;22.88;14.45;;;;;;;12.48;76.71;101156.63;4148071;28;20096;-61
2022/10/13 01:35:28;;;;;;;26.33;15.38;;;;;;;12.47;76.71;101154.88;4153617;28;20073;-61
2022/10/13 01:37:36;;;;;;;24.17;15.02;;;;;;;12.46;76.40;101159.22;4144371;28;20042;-61
2022/10/13 01:39:45;;;;;;;25.88;14.63;;;;;;;12.50;76.76;101158.44;4146621;28;20049;-61
2022/10/13 01:41:53;;;;;;;23.48;16.10;;;;;;;12.48;76.65;101160.13;4129635;28;20136;-61
2022/10/13 01:44:03;;;;;;;22.25;14.85;;;;;;;12.49;76.47;101158.41;4138774;28;20042;-61
2022/10/13 01:46:14;;;;;;;26.10;17.08;;;;;;;12.44;76.64;101158.31;4164334;28;20436;-61
2022/10/13 01:48:17;;;;;;;23.00;14.68;;;;;;;12.42;76.49;101152.19;4146780;28;20110;-61
2022/10/13 01:50:26;;;;;;;31.65;16.15;;;;;;;12.42;76.91;101162.63;4158159;28;20495;-61
2022/10/13 01:52:35;;;;;;;27.33;18.30;;;;;;;12.47;76.52;101155.78;4155489;28;20045;-61
2022/10/13 01:54:37;;;;;;;26.60;15.95;;;;;;;12.51;76.41;101159.28;4149607;28;20491;-61
2022/10/13 01:56:40;;;;;;;26.77;15.07;;;;;;;12.45;75.90;101154.84;4156859;28;20042;-63
2022/10/13 01:58:44;;;;;;;24.30;15.15;;;;;;;12.43;76.03;101164.38;4163278;28;20045;-60
2022/10/13 02:00:59;;;;;;;21.20;15.07;;;;;;;12.40;76.16;101164.34;4155281;28;20148;-60
2022/10/13 02:03:12;;;;;;;21.38;15.35;;;;;;;12.37;76.23;101159.06;4156202;28;20045;-61
2022/10/13 02:05:25;;;;;;;21.35;14.05;;;;;;;12.37;76.19;101159.06;4163305;28;20037;-61
2022/10/13 02:07:35;;;;;;;22.70;15.07;;;;;;;12.35;76.74;101163.34;4164054;28;20064;-60
2022/10/13 02:09:44;;;;;;;27.30;15.40;;;;;;;12.33;77.00;101167.69;4152523;28;20072;-60
2022/10/13 02:11:53;;;;;;;22.08;14.35;;;;;;;12.30;77.01;101157.19;4155551;28;20115;-60
2022/10/13 02:14:04;;;;;;;26.73;16.23;;;;;;;12.30;76.93;101159.81;4129484;28;20042;-60
2022/10/13 02:16:07;;;;;;;24.35;16.20;;;;;;;12.30;76.95;101157.19;4147702;28;20040;-60
2022/10/13 02:18:14;;;;;;;29.08;16.63;;;;;;;12.29;76.58;101155.44;4147489;28;20038;-60
2022/10/13 02:20:19;;;;;;;21.85;15.25;;;;;;;12.26;76.42;101151.03;4147692;28;20045;-60
2022/10/13 02:22:26;;;;;;;21.70;14.35;;;;;;;12.23;76.75;101151.84;4143306;28;20046;-60
2022/10/13 02:24:30;;;;;;;24.52;15.98;;;;;;;12.25;77.03;101148.41;4154721;28;20076;-61
2022/10/13 02:26:35;;;;;;;25.85;15.18;;;;;;;12.25;76.69;101151.00;4163897;28;20141;-61
2022/10/13 02:28:41;;;;;;;24.40;14.82;;;;;;;12.22;76.82;101144.00;4163854;28;20068;-61
2022/10/13 02:30:45;;;;;;;20.60;13.88;;;;;;;12.23;76.92;101144.03;4163913;28;20322;-60
2022/10/13 02:32:48;;;;;;;20.90;14.02;;;;;;;12.22;77.21;101134.47;4146305;28;20095;-61
2022/10/13 02:34:52;;;;;;;20.48;14.18;;;;;;;12.23;76.48;101138.81;4153934;28;20562;-61
2022/10/13 02:36:55;;;;;;;23.65;14.88;;;;;;;12.23;77.12;101141.41;4154681;28;20041;-60
2022/10/13 02:38:58;;;;;;;23.25;15.48;;;;;;;12.20;76.68;101136.16;4129971;28;20081;-60
2022/10/13 02:41:01;;;;;;;21.25;14.82;;;;;;;12.23;76.79;101133.59;4129954;28;20084;-61
2022/10/13 02:43:04;;;;;;;20.00;14.80;;;;;;;12.22;76.79;101134.47;4129942;28;20049;-60
2022/10/13 02:45:09;;;;;;;24.00;14.27;;;;;;;12.23;77.01;101135.34;4147680;28;20034;-61
2022/10/13 02:47:12;;;;;;;20.92;14.75;;;;;;;12.21;76.90;101132.69;4155669;28;20045;-60
2022/10/13 02:49:14;;;;;;;24.30;16.25;;;;;;;12.22;76.98;101129.25;4147309;28;20053;-60
2022/10/13 02:51:18;;;;;;;22.23;14.68;;;;;;;12.21;77.00;101124.88;4129957;28;20129;-61
2022/10/13 02:53:21;;;;;;;26.33;14.85;;;;;;;12.22;77.33;101113.63;4148930;28;20026;-60
2022/10/13 02:55:24;;;;;;;18.92;13.55;;;;;;;12.26;77.26;101121.50;4145938;28;20064;-61
2022/10/13 02:57:31;;;;;;;22.55;15.77;;;;;;;12.23;77.71;101120.56;4149812;28;20103;-61
2022/10/13 02:59:34;;;;;;;30.88;15.45;;;;;;;12.31;77.70;101117.22;4129934;28;20053;-61
2022/10/13 03:01:40;;;;;;;74.45;17.45;;;;;;;12.32;77.55;101118.97;4129774;28;20046;-61
2022/10/13 03:03:43;;;;;;;24.40;15.27;;;;;;;12.27;77.56;101118.91;4151426;28;20025;-61
2022/10/13 03:05:46;;;;;;;28.40;14.45;;;;;;;12.22;78.00;101112.72;4148247;28;20050;-60
2022/10/13 03:07:50;;;;;;;57.35;16.77;;;;;;;12.18;77.96;101121.34;4158257;28;20055;-61
2022/10/13 03:09:53;;;;;;;16.75;14.20;;;;;;;12.14;78.46;101130.84;4150316;28;20046;-61
2022/10/13 03:11:56;;;;;;;143.23;16.55;;;;;;;12.20;77.96;101130.94;4150066;28;20060;-60
2022/10/13 03:13:59;;;;;;;18.88;14.82;;;;;;;12.17;77.98;101130.88;4149412;28;20133;-61
2022/10/13 03:16:02;;;;;;;27.20;14.95;;;;;;;12.16;78.35;101126.53;4153652;28;20046;-61
2022/10/13 03:18:05;;;;;;;104.05;17.42;;;;;;;12.08;78.74;101127.25;4158248;28;20042;-60
2022/10/13 03:20:09;;;;;;;118.43;16.95;;;;;;;12.20;78.03;101122.25;4150327;28;20447;-63
2022/10/13 03:22:14;;;;;;;25.33;12.57;;;;;;;12.13;78.35;101123.84;4150201;28;20069;-60
2022/10/13 03:24:18;;;;;;;22.17;12.38;;;;;;;11.97;78.98;101133.13;4149796;28;20057;-60
2022/10/13 03:26:21;;;;;;;28.13;15.25;;;;;;;11.96;79.11;101125.25;4142982;28;20034;-61
2022/10/13 03:28:24;;;;;;;31.10;13.27;;;;;;;11.99;79.15;101117.53;4154500;28;20037;-61
2022/10/13 03:30:28;;;;;;;47.65;15.02;;;;;;;12.00;79.71;101116.66;4166299;28;20494;-62
2022/10/13 03:32:31;;;;;;;21.23;14.25;;;;;;;11.98;79.40;101120.97;4148607;28;20050;-62
2022/10/13 03:34:33;;;;;;;44.63;13.30;;;;;;;11.93;80.03;101120.91;4158617;28;20141;-62
2022/10/13 03:36:36;;;;;;;37.40;13.82;;;;;;;11.86;79.85;101119.84;4142210;28;20030;-61
2022/10/13 03:38:40;;;;;;;33.17;14.00;;;;;;;11.76;80.20;101122.25;4141691;28;20046;-62
2022/10/13 03:40:44;;;;;;;27.60;14.82;;;;;;;11.72;80.74;101123.91;4158859;28;20033;-62
2022/10/13 03:42:47;;;;;;;41.35;15.70;;;;;;;11.78;80.40;101121.41;4162719;28;20042;-61
2022/10/13 03:44:50;;;;;;;13.93;11.35;;;;;;;11.86;80.29;101125.06;4140587;28;20043;-62
2022/10/13 03:46:58;;;;;;;20.98;13.23;;;;;;;11.89;80.24;101121.66;4148570;28;20049;-62
2022/10/13 03:49:01;;;;;;;19.33;12.30;;;;;;;11.92;80.19;101111.28;4146329;28;20092;-61
2022/10/13 03:51:05;;;;;;;18.23;13.13;;;;;;;11.93;80.02;101114.75;4163747;28;20053;-61
2022/10/13 03:53:11;;;;;;;15.20;11.57;;;;;;;11.89;80.42;101116.44;4131678;28;20046;-61
2022/10/13 03:55:14;;;;;;;27.00;14.85;;;;;;;11.86;79.92;101119.84;4164440;28;20042;-61
2022/10/13 03:57:18;;;;;;;16.35;13.18;;;;;;;11.94;80.26;101119.16;4146993;28;20562;-61
2022/10/13 03:59:21;;;;;;;19.40;14.38;;;;;;;11.91;80.28;101119.94;4146345;28;20531;-61
2022/10/13 04:01:26;;;;;;;15.63;12.50;;;;;;;11.94;79.94;101122.63;4161467;28;20037;-61
2022/10/13 04:03:29;;;;;;;30.27;14.38;;;;;;;11.95;80.13;101129.59;4157362;28;20037;-61
2022/10/13 04:05:33;;;;;;;17.65;13.88;;;;;;;11.94;79.83;101117.41;4146030;28;20112;-61
2022/10/13 04:07:36;;;;;;;30.92;15.63;;;;;;;11.92;80.27;101123.44;4148093;28;20081;-61
2022/10/13 04:09:46;;;;;;;18.38;14.48;;;;;;;11.93;80.45;101120.91;4163660;28;20052;-61
2022/10/13 04:11:51;;;;;;;19.88;12.63;;;;;;;11.99;79.78;101125.34;4162079;28;20132;-61
2022/10/13 04:13:55;;;;;;;37.72;14.82;;;;;;;12.01;79.42;101119.28;4155563;28;20038;-61
2022/10/13 04:16:02;;;;;;;76.65;18.33;;;;;;;12.16;78.77;101123.94;4160485;28;20491;-61
2022/10/13 04:18:22;;;;;;;14.48;11.80;;;;;;;12.12;78.76;101116.00;4152196;28;20052;-62
2022/10/13 04:20:26;;;;;;;33.00;14.32;;;;;;;12.13;78.73;101123.84;4139898;28;20066;-62
2022/10/13 04:22:29;;;;;;;17.13;14.38;;;;;;;12.09;79.20;101118.56;4142228;28;20042;-62
2022/10/13 04:24:32;;;;;;;17.83;13.75;;;;;;;12.07;79.30;101128.97;4148235;28;20042;-62
2022/10/13 04:26:36;;;;;;;16.70;12.00;;;;;;;12.10;78.78;101120.31;4156689;28;20492;-60
2022/10/13 04:28:42;;;;;;;27.13;13.32;;;;;;;12.09;78.70;101121.16;4131044;28;20182;-59
2022/10/13 04:30:46;;;;;;;18.35;15.13;;;;;;;12.09;78.87;101121.16;4147827;28;20040;-60
2022/10/13 04:32:51;;;;;;;30.80;15.50;;;;;;;12.16;78.63;101123.94;4131514;28;20061;-60
2022/10/13 04:34:54;;;;;;;28.30;15.23;;;;;;;12.21;78.68;101124.88;4148226;28;20038;-60
2022/10/13 04:36:57;;;;;;;23.83;15.00;;;;;;;12.18;78.26;101111.78;4139807;28;20125;-60
2022/10/13 04:39:00;;;;;;;82.25;16.38;;;;;;;12.26;78.14;101114.53;4156881;28;20040;-60
2022/10/13 04:41:03;;;;;;;14.50;11.80;;;;;;;12.14;78.50;101115.19;4148912;28;20125;-60
2022/10/13 04:43:06;;;;;;;15.43;12.23;;;;;;;12.05;78.54;101109.81;4131018;28;20424;-60
2022/10/13 04:45:09;;;;;;;29.42;14.63;;;;;;;12.15;78.49;101109.13;4148234;28;20079;-60
2022/10/13 04:47:16;;;;;;;15.63;12.68;;;;;;;12.07;78.72;101100.28;4148796;28;20045;-60
2022/10/13 04:49:19;;;;;;;62.60;15.80;;;;;;;12.15;78.83;101101.31;4152817;28;20046;-60
2022/10/13 04:51:24;;;;;;;49.38;16.00;;;;;;;12.13;78.49;101104.75;4156130;28;20038;-60
2022/10/13 04:53:28;;;;;;;48.78;16.20;;;;;;;12.14;78.29;101107.38;4133074;28;20543;-60
2022/10/13 04:55:31;;;;;;;65.88;16.63;;;;;;;12.09;78.93;101106.44;4148646;28;20034;-60
2022/10/13 04:57:34;;;;;;;71.13;17.50;;;;;;;12.09;78.77;101106.44;4148589;28;20494;-60
2022/10/13 04:59:37;;;;;;;43.83;14.27;;;;;;;12.09;78.71;101106.44;4152003;28;20042;-60
2022/10/13 05:01:40;;;;;;;30.63;16.13;;;;;;;12.01;79.51;101102.78;4156516;28;20061;-60
2022/10/13 05:03:51;;;;;;;43.40;17.80;;;;;;;12.03;79.12;101098.47;4147714;28;20379;-60
2022/10/13 05:05:54;;;;;;;16.98;13.15;;;;;;;12.01;79.36;101094.97;4130815;28;20043;-60
2022/10/13 05:07:56;;;;;;;19.80;14.80;;;;;;;12.01;79.71;101098.44;4148424;28;20385;-60
2022/10/13 05:09:59;;;;;;;20.58;16.17;;;;;;;12.05;79.86;101088.97;4148356;28;20095;-60
2022/10/13 05:12:02;;;;;;;28.50;17.73;;;;;;;12.10;79.41;101087.31;4132763;28;20046;-60
2022/10/13 05:14:05;;;;;;;19.25;13.75;;;;;;;12.11;79.43;101094.28;4138163;28;20492;-60
2022/10/13 05:16:09;;;;;;;53.92;18.58;;;;;;;12.09;79.04;101090.78;4164550;28;20128;-60
2022/10/13 05:18:12;;;;;;;19.38;13.63;;;;;;;12.03;79.58;101086.34;4164638;28;20038;-60
2022/10/13 05:20:16;;;;;;;19.30;14.75;;;;;;;12.01;79.96;101082.81;4164617;28;20065;-60
2022/10/13 05:22:19;;;;;;;20.10;15.38;;;;;;;12.05;79.61;101086.38;4158936;28;20034;-60
2022/10/13 05:24:29;;;;;;;24.10;16.85;;;;;;;12.04;79.86;101074.19;4155302;28;20049;-60
2022/10/13 05:26:35;;;;;;;27.35;18.27;;;;;;;12.12;79.73;101075.22;4154985;28;20495;-61
2022/10/13 05:28:39;;;;;;;22.23;14.00;;;;;;;12.11;79.54;101067.34;4138878;28;20100;-60
2022/10/13 05:30:41;;;;;;;22.80;15.40;;;;;;;12.16;79.65;101057.88;4147037;28;20042;-60
2022/10/13 05:32:44;;;;;;;22.67;18.30;;;;;;;12.22;79.08;101056.25;4164320;28;20045;-60
2022/10/13 05:34:51;;;;;;;18.55;14.75;;;;;;;12.17;79.43;101060.50;4144559;28;20042;-60
2022/10/13 05:36:55;;;;;;;24.67;18.58;;;;;;;12.14;79.70;101063.06;4137894;28;20137;-60
2022/10/13 05:39:00;;;;;;;23.73;16.77;;;;;;;12.15;79.01;101066.53;4148103;28;20042;-60
2022/10/13 05:41:03;;;;;;;;;;;;;;;11.81;80.45;101074.63;4148357;28;20129;-60
2022/10/13 05:43:06;;;;;;;23.77;15.48;;;;;;;11.73;80.55;101076.19;4146171;28;19956;-60
2022/10/13 05:45:11;;;;;;;23.95;14.05;;;;;;;11.83;81.14;101077.25;4152789;28;20046;-60
2022/10/13 05:47:13;;;;;;;24.90;16.10;;;;;;;11.84;81.04;101072.06;4143262;28;20049;-60
2022/10/13 05:49:16;;;;;;;20.83;15.20;;;;;;;11.80;80.78;101083.25;4147767;28;20037;-60
2022/10/13 05:51:24;;;;;;;19.33;13.32;;;;;;;11.76;80.40;101078.84;4130392;28;20043;-60
2022/10/13 05:53:30;;;;;;;18.90;13.40;;;;;;;11.73;80.69;101080.53;4129313;28;20070;-60
2022/10/13 05:55:33;;;;;;;15.38;11.95;;;;;;;11.76;80.82;101076.22;4161940;28;20080;-60
2022/10/13 05:57:39;;;;;;;25.48;17.90;;;;;;;11.79;80.96;101081.50;4149552;28;20512;-60
2022/10/13 05:59:47;;;;;;;20.48;14.90;;;;;;;11.83;80.49;101070.28;4146618;28;20080;-61
2022/10/13 06:01:52;;;;;;;24.08;17.17;;;;;;;11.88;80.85;101075.59;4147805;28;20121;-63
2022/10/13 06:03:58;;;;;;;19.90;16.02;;;;;;;11.92;80.08;101066.97;4145324;28;20080;-61
2022/10/13 06:06:01;;;;;;;20.85;14.85;;;;;;;12.01;79.75;101061.09;4136626;28;20054;-61
2022/10/13 06:08:04;;;;;;;21.17;17.17;;;;;;;12.10;79.71;101057.78;4130229;28;20516;-61
2022/10/13 06:10:10;;;;;;;18.92;13.63;;;;;;;12.09;79.43;101061.22;4130203;28;20392;-60
2022/10/13 06:12:13;;;;;;;19.45;14.32;;;;;;;11.96;79.92;101062.72;4150408;28;20038;-61
2022/10/13 06:14:16;;;;;;;18.75;15.88;;;;;;;12.00;79.92;101059.31;4151035;28;20065;-60
2022/10/13 06:16:19;;;;;;;16.30;11.80;;;;;;;11.99;79.90;101058.47;4155653;28;20034;-60
2022/10/13 06:18:22;;;;;;;18.40;13.65;;;;;;;12.03;80.08;101065.50;4130064;28;20073;-60
2022/10/13 06:20:26;;;;;;;19.15;15.75;;;;;;;11.96;80.01;101062.72;4147507;28;20038;-60
2022/10/13 06:22:29;;;;;;;23.40;18.45;;;;;;;11.95;80.48;101063.59;4147660;28;20045;-60
2022/10/13 06:24:31;;;;;;;18.77;13.70;;;;;;;11.97;80.54;101054.06;4148755;28;20029;-60
2022/10/13 06:26:35;;;;;;;20.45;15.10;;;;;;;11.99;80.21;101055.84;4155466;28;20068;-60
2022/10/13 06:28:38;;;;;;;21.95;15.20;;;;;;;11.96;80.61;101067.94;4144872;28;20042;-60
2022/10/13 06:30:45;;;;;;;20.35;15.63;;;;;;;11.96;80.82;101063.63;4163883;28;20041;-60
2022/10/13 06:32:49;;;;;;;29.40;18.48;;;;;;;11.92;80.96;101068.72;4146297;28;20058;-60
2022/10/13 06:34:52;;;;;;;25.30;17.73;;;;;;;11.84;80.79;101076.38;4163075;28;20045;-60
2022/10/13 06:36:55;;;;;;;21.27;15.10;;;;;;;11.82;81.67;101078.09;4145274;28;20544;-60
2022/10/13 06:38:58;;;;;;;28.00;20.38;;;;;;;11.87;81.79;101084.25;4163767;28;20515;-60
2022/10/13 06:41:00;;;;;;;24.80;17.25;;;;;;;11.98;80.93;101072.34;4150799;28;20062;-60
2022/10/13 06:43:08;;;;;;;24.25;18.55;;;;;;;12.05;81.08;101078.53;4149169;28;20046;-62
2022/10/13 06:45:16;;;;;;;25.98;18.50;;;;;;;11.95;81.30;101079.22;4128170;28;20046;-60
2022/10/13 06:47:18;;;;;;;26.38;16.60;;;;;;;12.02;81.42;101078.50;4145122;28;20046;-60
2022/10/13 06:49:23;;;;;;;31.10;19.35;;;;;;;12.03;81.40;101080.22;4150565;28;20100;-60
2022/10/13 06:51:25;;;;;;;28.48;21.23;;;;;;;12.11;80.98;101088.22;4150564;28;20038;-60
2022/10/13 06:53:28;;;;;;;25.38;19.08;;;;;;;12.11;80.54;101083.88;4132146;28;20046;-60
2022/10/13 06:55:31;;;;;;;27.48;19.90;;;;;;;12.09;80.66;101080.38;4154657;28;20076;-60
2022/10/13 06:57:34;;;;;;;27.75;19.08;;;;;;;12.09;81.34;101082.06;4158482;28;20049;-60
2022/10/13 06:59:40;;;;;;;25.77;17.73;;;;;;;12.00;81.10;101077.56;4150409;28;20042;-60
2022/10/13 07:01:43;;;;;;;28.27;19.17;;;;;;;11.99;81.26;101073.22;4150482;28;20053;-60
2022/10/13 07:03:49;;;;;;;29.58;18.55;;;;;;;12.02;81.56;101074.16;4150836;28;20053;-60
2022/10/13 07:05:54;;;;;;;33.25;21.63;;;;;;;12.15;81.00;101074.34;4141324;28;20399;-60
2022/10/13 07:07:57;;;;;;;31.38;21.38;;;;;;;12.19;81.02;101066.66;4166718;28;20037;-60
2022/10/13 07:10:00;;;;;;;39.13;25.52;;;;;;;12.33;80.77;101058.16;4148966;28;20073;-60
2022/10/13 07:12:03;;;;;;;37.00;23.52;;;;;;;12.25;81.00;101073.69;4166603;28;20115;-60
2022/10/13 07:14:06;;;;;;;37.97;22.95;;;;;;;12.34;80.90;101071.22;4160648;28;20438;-60
2022/10/13 07:16:11;;;;;;;35.47;23.08;;;;;;;12.42;80.75;101068.75;4160961;28;20491;-60
2022/10/13 07:18:13;;;;;;;38.30;25.55;;;;;;;12.50;80.31;101066.25;4166472;28;20474;-60
2022/10/13 07:20:16;;;;;;;39.30;24.90;;;;;;;12.47;80.58;101061.88;4166348;28;20533;-60
2022/10/13 07:22:19;;;;;;;35.88;25.33;;;;;;;12.61;80.57;101064.69;4132593;28;20566;-60
2022/10/13 07:24:22;;;;;;;29.10;21.17;;;;;;;12.58;80.17;101070.72;4165482;28;20495;-60
2022/10/13 07:26:25;;;;;;;33.00;23.33;;;;;;;12.54;80.60;101075.88;4152919;28;20065;-60
2022/10/13 07:28:27;;;;;;;38.10;23.73;;;;;;;12.63;80.32;101068.22;4132533;28;20038;-60
2022/10/13 07:30:30;;;;;;;33.75;21.83;;;;;;;12.58;80.50;101067.25;4149832;28;20121;-60
2022/10/13 07:32:35;;;;;;;32.85;21.15;;;;;;;12.62;80.43;101063.00;4149933;28;20115;-60
2022/10/13 07:34:41;;;;;;;32.40;20.52;;;;;;;12.62;80.20;101070.81;4156028;28;20044;-60
2022/10/13 07:36:44;;;;;;;31.05;22.13;;;;;;;12.68;80.28;101061.34;4157923;28;20587;-60
2022/10/13 07:38:47;;;;;;;30.88;21.50;;;;;;;12.75;79.92;101062.31;4132436;28;20483;-60
2022/10/13 07:40:50;;;;;;;28.40;19.40;;;;;;;12.67;80.68;101058.69;4132200;28;20059;-60
2022/10/13 07:42:53;;;;;;;31.85;23.70;;;;;;;12.72;80.05;101047.47;4156703;28;20120;-60
2022/10/13 07:44:55;;;;;;;38.13;24.85;;;;;;;12.83;79.34;101031.97;4157176;28;20049;-60
2022/10/13 07:47:01;;;;;;;34.25;25.33;;;;;;;12.89;79.42;101023.34;4149584;28;20042;-60
2022/10/13 07:49:05;;;;;;;34.90;25.45;;;;;;;12.91;79.41;101025.13;4132011;28;20050;-60
2022/10/13 07:51:10;;;;;;;34.13;22.15;;;;;;;12.87;79.37;101023.34;4148235;28;20038;-60
2022/10/13 07:53:13;;;;;;;28.10;19.30;;;;;;;12.85;79.48;101026.78;4155308;28;20107;-60
2022/10/13 07:55:16;;;;;;;28.15;19.83;;;;;;;12.88;79.48;101047.72;4154018;28;20554;-60
2022/10/13 07:57:19;;;;;;;24.17;16.90;;;;;;;12.84;80.16;101049.38;4132001;28;20054;-60
2022/10/13 07:59:22;;;;;;;29.73;18.92;;;;;;;12.79;80.16;101048.47;4132279;28;20097;-60
2022/10/13 08:01:25;;;;;;;32.22;20.92;;;;;;;12.80;80.31;101050.19;4132036;28;20416;-60
2022/10/13 08:03:29;;;;;;;22.17;17.13;;;;;;;12.82;80.33;101055.44;4148642;28;20053;-60
2022/10/13 08:05:33;;;;;;;23.77;15.82;;;;;;;12.88;79.95;101048.59;4152178;28;20046;-60
2022/10/13 08:07:38;;;;;;;29.52;18.45;;;;;;;12.88;80.10;101053.81;4162755;28;20514;-60
2022/10/13 08:09:41;;;;;;;27.08;18.02;;;;;;;13.03;79.51;101053.13;4150480;28;20042;-60
2022/10/13 08:11:43;;;;;;;23.92;17.48;;;;;;;12.97;79.51;101045.22;4149381;28;20050;-60
2022/10/13 08:13:48;;;;;;;20.55;14.25;;;;;;;13.01;79.57;101043.53;4148472;28;20038;-60
2022/10/13 08:15:55;;;;;;;25.13;16.75;;;;;;;13.10;79.50;101048.88;4131905;28;20133;-60
2022/10/13 08:17:58;;;;;;;28.33;18.55;;;;;;;13.20;79.54;101042.94;4155684;28;20037;-60
2022/10/13 08:20:01;;;;;;;25.58;18.50;;;;;;;13.19;79.24;101046.38;4150713;28;20037;-60
2022/10/13 08:22:05;;;;;;;24.10;18.88;;;;;;;13.15;79.00;101041.13;4158804;28;20042;-60
2022/10/13 08:24:14;;;;;;;30.23;19.73;;;;;;;13.28;78.21;101033.44;4155968;28;20495;-60
2022/10/13 08:26:19;;;;;;;28.17;17.08;;;;;;;13.24;78.61;101046.44;4143886;28;20497;-60
2022/10/13 08:28:24;;;;;;;24.15;15.27;;;;;;;13.20;78.89;101045.53;4131626;28;20096;-60
2022/10/13 08:30:27;;;;;;;21.63;15.45;;;;;;;13.14;78.67;101050.69;4131668;28;20042;-60
2022/10/13 08:32:30;;;;;;;24.10;16.90;;;;;;;13.15;79.08;101057.63;4140212;28;20038;-60
2022/10/13 08:34:35;;;;;;;21.50;15.60;;;;;;;13.07;78.83;101056.69;4156253;28;20033;-60
2022/10/13 08:36:38;;;;;;;;;;;;;;;12.87;79.31;101052.03;4149454;28;20049;-60
2022/10/13 08:38:42;;;;;;;17.42;12.77;;;;;;;13.01;78.96;101056.56;4148949;28;19957;-60
2022/10/13 08:40:47;;;;;;;20.15;13.60;;;;;;;12.98;79.49;101061.75;4148976;28;20513;-60
2022/10/13 08:42:50;;;;;;;;;;;;;;;12.81;80.13;101066.75;4149354;28;20045;-60
2022/10/13 08:45:00;;;;;;;21.83;15.25;;;;;;;12.82;79.85;101068.47;4149471;28;19922;-60
2022/10/13 08:47:38;;;;;;;21.23;15.98;;;;;;;12.96;79.34;101068.69;4152349;28;20125;-60
2022/10/13 08:49:44;;;;;;;25.52;17.15;;;;;;;13.01;79.15;101069.63;4131223;28;20141;-60
2022/10/13 08:51:47;;;;;;;27.25;17.60;;;;;;;13.01;78.84;101060.09;4148690;28;20439;-60
2022/10/13 08:53:51;;;;;;;20.63;14.90;;;;;;;13.06;78.81;101058.41;4144335;28;20042;-61
2022/10/13 08:55:57;;;;;;;21.98;15.00;;;;;;;13.11;78.45;101066.28;4155880;28;20476;-60
2022/10/13 08:58:05;;;;;;;23.15;15.65;;;;;;;13.04;78.94;101064.44;4148700;28;20507;-60
2022/10/13 09:00:12;;;;;;;21.63;15.32;;;;;;;13.08;78.71;101069.75;4148436;28;20048;-60
2022/10/13 09:02:23;;;;;;;23.70;15.07;;;;;;;13.06;78.54;101062.75;4148173;28;20096;-60
2022/10/13 09:04:30;;;;;;;21.23;12.88;;;;;;;13.08;78.98;101071.47;4155707;28;20033;-60
2022/10/13 09:06:37;;;;;;;22.23;14.02;;;;;;;13.11;78.76;101074.13;4150252;28;20041;-60
2022/10/13 09:08:45;;;;;;;27.83;16.08;;;;;;;13.17;78.21;101071.59;4147217;28;20140;-60
2022/10/13 09:10:51;;;;;;;27.50;16.10;;;;;;;13.16;78.23;101068.97;4148387;28;20046;-60
2022/10/13 09:12:54;;;;;;;20.73;14.43;;;;;;;13.09;78.42;101062.78;4148524;28;20454;-60
2022/10/13 09:15:00;;;;;;;21.65;15.63;;;;;;;13.11;78.60;101066.28;4149918;28;20042;-60
2022/10/13 09:17:18;;;;;;;20.83;13.48;;;;;;;13.20;77.89;101055.09;4156454;28;20454;-60
2022/10/13 09:19:26;;;;;;;19.48;13.63;;;;;;;13.22;78.00;101064.69;4148244;28;20037;-60
2022/10/13 09:21:29;;;;;;;17.10;12.93;;;;;;;13.17;78.27;101073.31;4148197;28;20053;-60
2022/10/13 09:23:31;;;;;;;20.08;13.82;;;;;;;13.12;78.55;101072.41;4152676;28;20041;-60
2022/10/13 09:25:41;;;;;;;18.65;13.05;;;;;;;13.17;78.17;101065.50;4156178;28;20038;-60
2022/10/13 09:27:49;;;;;;;19.85;13.73;;;;;;;13.27;78.04;101060.44;4148860;28;20403;-60
2022/10/13 09:29:52;;;;;;;25.65;16.63;;;;;;;13.29;78.24;101055.22;4148145;28;20049;-60